createdAt,value
2023-12-17T00:01:04.877Z,99289.94
2023-12-17T00:03:31.638Z,99292.03
2023-12-17T00:05:58.354Z,99293.19
2023-12-17T00:08:24.968Z,99291.91
2023-12-17T00:10:51.548Z,99299.00
2023-12-17T00:13:18.230Z,99289.31
2023-12-17T00:15:44.820Z,99297.06
2023-12-17T00:18:11.595Z,99291.56
2023-12-17T00:20:38.401Z,99299.31
2023-12-17T00:23:05.050Z,99299.47
2023-12-17T00:25:31.660Z,99298.75
2023-12-17T00:27:58.302Z,99292.78
2023-12-17T00:30:25.017Z,99291.69
2023-12-17T00:32:53.328Z,99290.88
2023-12-17T00:35:20.149Z,99292.66
2023-12-17T00:37:46.736Z,99288.31
2023-12-17T00:40:13.366Z,99285.72
2023-12-17T00:42:39.969Z,99287.97
2023-12-17T00:45:06.560Z,99288.03
2023-12-17T00:47:33.229Z,99277.63
2023-12-17T00:49:59.804Z,99280.38
2023-12-17T00:52:26.390Z,99272.78
2023-12-17T00:54:52.979Z,99279.75
2023-12-17T00:57:19.657Z,99285.25
2023-12-17T00:59:46.299Z,99276.53
2023-12-17T01:02:12.907Z,99276.81
2023-12-17T01:04:39.536Z,99272.00
2023-12-17T01:07:06.126Z,99273.06
2023-12-17T01:09:32.720Z,99276.94
2023-12-17T01:11:59.357Z,99278.84
2023-12-17T01:14:25.996Z,99281.16
2023-12-17T01:16:52.714Z,99278.59
2023-12-17T01:19:19.487Z,99274.72
2023-12-17T01:21:46.167Z,99265.50
2023-12-17T01:24:12.922Z,99275.88
2023-12-17T01:26:39.698Z,99280.69
2023-12-17T01:29:06.309Z,99282.34
2023-12-17T01:31:32.869Z,99276.84
2023-12-17T01:33:59.574Z,99269.50
2023-12-17T01:36:26.236Z,99272.41
2023-12-17T01:38:52.929Z,99279.72
2023-12-17T01:41:19.537Z,99280.06
2023-12-17T01:43:46.126Z,99276.81
2023-12-17T01:46:12.756Z,99285.41
2023-12-17T01:48:39.572Z,99281.69
2023-12-17T01:51:06.243Z,99278.47
2023-12-17T01:53:32.835Z,99276.50
2023-12-17T01:55:59.447Z,99269.88
2023-12-17T01:58:26.171Z,99268.44
2023-12-17T02:00:52.805Z,99268.28
2023-12-17T02:03:19.688Z,99265.19
2023-12-17T02:05:46.501Z,99264.88
2023-12-17T02:08:13.080Z,99265.03
2023-12-17T02:10:39.653Z,99270.22
2023-12-17T02:13:06.226Z,99265.34
2023-12-17T02:15:32.839Z,99261.31
2023-12-17T02:17:59.568Z,99267.13
2023-12-17T02:20:26.181Z,99259.84
2023-12-17T02:22:52.753Z,99267.78
2023-12-17T02:25:19.354Z,99262.63
2023-12-17T02:27:45.934Z,99260.97
2023-12-17T02:30:12.596Z,99264.66
2023-12-17T02:32:39.268Z,99266.25
2023-12-17T02:35:05.889Z,99271.53
2023-12-17T02:37:32.507Z,99277.00
2023-12-17T02:39:59.080Z,99267.34
2023-12-17T02:42:25.689Z,99265.28
2023-12-17T02:44:52.349Z,99264.81
2023-12-17T02:47:18.946Z,99261.53
2023-12-17T02:49:45.599Z,99263.63
2023-12-17T02:52:12.244Z,99255.41
2023-12-17T02:54:38.811Z,99253.94
2023-12-17T02:57:05.695Z,99263.31
2023-12-17T02:59:32.287Z,99268.44
2023-12-17T03:01:58.908Z,99260.94
2023-12-17T03:04:25.495Z,99272.78
2023-12-17T03:06:52.093Z,99266.25
2023-12-17T03:09:18.776Z,99270.56
2023-12-17T03:11:45.464Z,99267.41
2023-12-17T03:14:12.091Z,99272.16
2023-12-17T03:16:38.893Z,99268.03
2023-12-17T03:19:05.597Z,99273.28
2023-12-17T03:21:32.285Z,99279.59
2023-12-17T03:23:58.972Z,99266.28
2023-12-17T03:26:25.614Z,99262.19
2023-12-17T03:28:52.368Z,99267.72
2023-12-17T03:31:19.052Z,99268.16
2023-12-17T03:33:45.923Z,99277.31
2023-12-17T03:36:12.671Z,99280.16
2023-12-17T03:38:39.282Z,99281.53
2023-12-17T03:41:05.867Z,99277.59
2023-12-17T03:43:32.449Z,99280.75
2023-12-17T03:45:59.019Z,99284.53
2023-12-17T03:48:25.745Z,99284.91
2023-12-17T03:50:52.435Z,99285.16
2023-12-17T03:53:19.082Z,99293.50
2023-12-17T03:55:45.697Z,99285.41
2023-12-17T03:58:12.321Z,99278.22
2023-12-17T04:00:38.954Z,99289.25
2023-12-17T04:03:05.606Z,99288.44
2023-12-17T04:05:32.303Z,99295.38
2023-12-17T04:07:58.937Z,99300.69
2023-12-17T04:10:25.531Z,99296.09
2023-12-17T04:12:52.130Z,99300.84
2023-12-17T04:15:18.813Z,99297.72
2023-12-17T04:17:45.648Z,99285.91
2023-12-17T04:20:12.270Z,99290.97
2023-12-17T04:22:38.839Z,99288.81
2023-12-17T04:25:05.424Z,99301.44
2023-12-17T04:27:32.066Z,99293.34
2023-12-17T04:29:58.648Z,99314.00
2023-12-17T04:32:25.397Z,99300.09
2023-12-17T04:34:52.058Z,99304.19
2023-12-17T04:37:18.653Z,99309.53
2023-12-17T04:39:45.244Z,99313.75
2023-12-17T04:42:11.836Z,99319.00
2023-12-17T04:44:38.442Z,99309.56
2023-12-17T04:47:05.057Z,99307.63
2023-12-17T04:49:31.736Z,99306.63
2023-12-17T04:51:58.496Z,99315.41
2023-12-17T04:54:25.289Z,99316.84
2023-12-17T04:56:51.942Z,99321.72
2023-12-17T04:59:18.673Z,99316.75
2023-12-17T05:01:45.250Z,99316.19
2023-12-17T05:04:12.030Z,99313.91
2023-12-17T05:06:38.683Z,99319.28
2023-12-17T05:09:05.240Z,99320.66
2023-12-17T05:11:31.689Z,99317.47
2023-12-17T05:13:58.180Z,99307.13
2023-12-17T05:16:24.613Z,99325.72
2023-12-17T05:18:51.355Z,99318.50
2023-12-17T05:21:18.420Z,99323.03
2023-12-17T05:23:45.478Z,99318.34
2023-12-17T05:26:11.936Z,99315.06
2023-12-17T05:28:38.363Z,99317.97
2023-12-17T05:31:04.891Z,99325.94
2023-12-17T05:33:31.510Z,99320.47
2023-12-17T05:35:58.048Z,99329.06
2023-12-17T05:38:24.520Z,99330.88
2023-12-17T05:40:50.975Z,99331.44
2023-12-17T05:43:17.421Z,99327.84
2023-12-17T05:45:50.905Z,99322.34
2023-12-17T05:48:24.927Z,99324.03
2023-12-17T05:50:51.578Z,99326.47
2023-12-17T05:53:18.260Z,99316.13
2023-12-17T05:55:46.388Z,99316.19
2023-12-17T05:58:12.821Z,99314.78
2023-12-17T06:00:39.283Z,99319.28
2023-12-17T06:03:05.854Z,99318.66
2023-12-17T06:05:32.371Z,99320.06
2023-12-17T06:07:59.046Z,99321.50
2023-12-17T06:10:25.677Z,99319.25
2023-12-17T06:12:52.389Z,99325.88
2023-12-17T06:15:19.012Z,99321.22
2023-12-17T06:17:45.681Z,99322.22
2023-12-17T06:20:12.333Z,99327.16
2023-12-17T06:22:39.257Z,99328.66
2023-12-17T06:25:05.863Z,99326.69
2023-12-17T06:27:32.667Z,99322.19
2023-12-17T06:29:59.384Z,99324.44
2023-12-17T06:32:26.011Z,99323.47
2023-12-17T06:34:52.694Z,99322.91
2023-12-17T06:37:19.302Z,99324.84
2023-12-17T06:39:45.887Z,99335.28
2023-12-17T06:42:12.536Z,99330.38
2023-12-17T06:44:39.167Z,99334.19
2023-12-17T06:47:14.203Z,99337.56
2023-12-17T06:49:49.133Z,99328.81
2023-12-17T06:52:15.801Z,99332.25
2023-12-17T06:54:42.441Z,99336.94
2023-12-17T06:57:09.049Z,99338.56
2023-12-17T06:59:35.651Z,99339.94
2023-12-17T07:02:02.292Z,99344.16
2023-12-17T07:04:29.019Z,99341.63
2023-12-17T07:06:55.616Z,99338.78
2023-12-17T07:09:22.300Z,99344.09
2023-12-17T07:11:48.983Z,99333.72
2023-12-17T07:14:15.666Z,99337.00
2023-12-17T07:16:42.252Z,99342.75
2023-12-17T07:19:08.985Z,99328.31
2023-12-17T07:21:35.667Z,99335.19
2023-12-17T07:24:02.345Z,99330.69
2023-12-17T07:26:28.971Z,99337.88
2023-12-17T07:28:55.582Z,99334.34
2023-12-17T07:31:22.357Z,99333.81
2023-12-17T07:33:49.135Z,99327.91
2023-12-17T07:36:15.829Z,99333.63
2023-12-17T07:38:42.420Z,99336.16
2023-12-17T07:41:09.024Z,99339.53
2023-12-17T07:43:35.618Z,99336.59
2023-12-17T07:46:02.215Z,99334.22
2023-12-17T07:48:28.907Z,99330.31
2023-12-17T07:50:55.809Z,99332.09
2023-12-17T07:53:22.492Z,99337.88
2023-12-17T07:55:49.094Z,99338.69
2023-12-17T07:58:15.703Z,99333.06
2023-12-17T08:00:42.378Z,99335.28
2023-12-17T08:03:09.078Z,99340.06
2023-12-17T08:05:35.886Z,99346.34
2023-12-17T08:08:02.518Z,99347.44
2023-12-17T08:10:29.185Z,99334.59
2023-12-17T08:12:55.802Z,99332.50
2023-12-17T08:15:22.461Z,99335.78
2023-12-17T08:17:49.164Z,99341.47
2023-12-17T08:20:15.872Z,99340.16
2023-12-17T08:22:42.480Z,99336.41
2023-12-17T08:25:09.104Z,99334.00
2023-12-17T08:27:35.708Z,99340.22
2023-12-17T08:30:02.337Z,99340.22
2023-12-17T08:32:28.975Z,99337.06
2023-12-17T08:34:55.598Z,99340.41
2023-12-17T08:37:22.260Z,99341.72
2023-12-17T08:39:48.935Z,99342.31
2023-12-17T08:42:15.602Z,99343.69
2023-12-17T08:44:43.140Z,99338.06
2023-12-17T08:47:09.757Z,99335.97
2023-12-17T08:49:36.476Z,99344.91
2023-12-17T08:52:03.117Z,99346.16
2023-12-17T08:54:29.737Z,99335.81
2023-12-17T08:56:56.425Z,99344.91
2023-12-17T08:59:23.060Z,99338.25
2023-12-17T09:01:49.665Z,99343.00
2023-12-17T09:04:16.335Z,99344.13
2023-12-17T09:06:42.910Z,99339.75
2023-12-17T09:09:09.598Z,99348.22
2023-12-17T09:11:36.186Z,99353.63
2023-12-17T09:14:02.773Z,99354.56
2023-12-17T09:16:29.354Z,99351.66
2023-12-17T09:18:56.018Z,99358.53
2023-12-17T09:21:22.688Z,99352.56
2023-12-17T09:23:49.327Z,99359.19
2023-12-17T09:26:15.960Z,99357.34
2023-12-17T09:28:42.732Z,99362.56
2023-12-17T09:31:09.367Z,99359.59
2023-12-17T09:33:36.240Z,99367.91
2023-12-17T09:36:02.940Z,99363.19
2023-12-17T09:38:29.553Z,99359.34
2023-12-17T09:40:56.164Z,99357.16
2023-12-17T09:43:22.816Z,99367.53
2023-12-17T09:45:49.419Z,99365.28
2023-12-17T09:48:16.302Z,99358.94
2023-12-17T09:50:42.936Z,99361.22
2023-12-17T09:53:09.525Z,99356.88
2023-12-17T09:55:36.180Z,99357.06
2023-12-17T09:58:02.843Z,99363.16
2023-12-17T10:00:29.614Z,99353.59
2023-12-17T10:02:56.479Z,99358.31
2023-12-17T10:05:23.152Z,99360.59
2023-12-17T10:07:49.772Z,99350.84
2023-12-17T10:10:16.378Z,99353.94
2023-12-17T10:12:44.711Z,99349.59
2023-12-17T10:15:12.448Z,99349.72
2023-12-17T10:17:39.261Z,99345.69
2023-12-17T10:20:08.595Z,99338.09
2023-12-17T10:22:35.223Z,99333.69
2023-12-17T10:25:01.917Z,99332.72
2023-12-17T10:27:28.719Z,99332.84
2023-12-17T10:29:55.375Z,99331.03
2023-12-17T10:32:21.885Z,99325.03
2023-12-17T10:34:48.512Z,99329.38
2023-12-17T10:37:15.187Z,99327.94
2023-12-17T10:39:41.620Z,99318.13
2023-12-17T10:42:08.131Z,99315.63
2023-12-17T10:44:34.598Z,99315.13
2023-12-17T10:47:01.062Z,99314.66
2023-12-17T10:49:27.601Z,99314.25
2023-12-17T10:51:54.100Z,99309.94
2023-12-17T10:54:20.583Z,99308.38
2023-12-17T10:56:47.072Z,99307.28
2023-12-17T10:59:15.685Z,99303.97
2023-12-17T11:01:46.411Z,99308.16
2023-12-17T11:04:12.976Z,99300.31
2023-12-17T11:06:39.464Z,99305.16
2023-12-17T11:09:05.949Z,99300.41
2023-12-17T11:11:32.454Z,99297.53
2023-12-17T11:13:59.056Z,99292.63
2023-12-17T11:16:25.772Z,99292.84
2023-12-17T11:18:52.389Z,99293.97
2023-12-17T11:21:18.969Z,99288.63
2023-12-17T11:23:45.461Z,99283.66
2023-12-17T11:26:11.988Z,99282.19
2023-12-17T11:28:38.590Z,99280.38
2023-12-17T11:31:05.227Z,99289.84
2023-12-17T11:33:32.012Z,99284.53
2023-12-17T11:35:58.742Z,99285.69
2023-12-17T11:38:25.555Z,99282.25
2023-12-17T11:40:52.189Z,99272.84
2023-12-17T11:43:18.854Z,99276.34
2023-12-17T11:45:46.050Z,99273.38
2023-12-17T11:48:13.085Z,99272.13
2023-12-17T11:50:39.706Z,99275.50
2023-12-17T11:53:06.335Z,99268.72
2023-12-17T11:55:33.579Z,99268.00
2023-12-17T11:58:00.193Z,99268.22
2023-12-17T12:00:26.812Z,99263.34
2023-12-17T12:02:53.493Z,99265.09
2023-12-17T12:05:20.354Z,99264.03
2023-12-17T12:07:47.088Z,99257.31
2023-12-17T12:10:13.799Z,99260.41
2023-12-17T12:12:40.501Z,99261.03
2023-12-17T12:15:07.210Z,99254.41
2023-12-17T12:17:33.995Z,99246.56
2023-12-17T12:20:00.997Z,99255.91
2023-12-17T12:22:27.933Z,99252.34
2023-12-17T12:24:54.539Z,99247.16
2023-12-17T12:27:21.152Z,99251.84
2023-12-17T12:29:47.767Z,99248.16
2023-12-17T12:32:14.370Z,99244.22
2023-12-17T12:34:42.175Z,99250.25
2023-12-17T12:37:08.767Z,99251.84
2023-12-17T12:39:45.147Z,99251.84
2023-12-17T12:42:21.622Z,99246.63
2023-12-17T12:44:48.289Z,99245.53
2023-12-17T12:47:14.871Z,99250.44
2023-12-17T12:49:41.602Z,99245.78
2023-12-17T12:52:08.302Z,99248.41
2023-12-17T12:54:35.012Z,99242.41
2023-12-17T12:57:01.748Z,99239.22
2023-12-17T12:59:28.371Z,99238.97
2023-12-17T13:01:54.959Z,99234.34
2023-12-17T13:04:21.579Z,99218.47
2023-12-17T13:06:48.214Z,99226.00
2023-12-17T13:09:15.931Z,99222.25
2023-12-17T13:11:43.648Z,99215.53
2023-12-17T13:14:10.234Z,99215.03
2023-12-17T13:16:36.836Z,99210.78
2023-12-17T13:19:08.609Z,99214.91
2023-12-17T13:21:41.062Z,99211.00
2023-12-17T13:24:07.753Z,99207.53
2023-12-17T13:26:34.457Z,99212.97
2023-12-17T13:29:01.053Z,99207.78
2023-12-17T13:31:27.686Z,99207.00
2023-12-17T13:33:54.430Z,99216.50
2023-12-17T13:36:21.093Z,99208.25
2023-12-17T13:38:47.676Z,99198.84
2023-12-17T13:41:14.306Z,99202.31
2023-12-17T13:43:40.905Z,99196.06
2023-12-17T13:46:07.507Z,99194.31
2023-12-17T13:48:34.801Z,99192.09
2023-12-17T13:51:01.635Z,99197.47
2023-12-17T13:53:28.285Z,99203.53
2023-12-17T13:55:54.851Z,99202.78
2023-12-17T13:58:21.450Z,99198.00
2023-12-17T14:00:48.154Z,99201.00
2023-12-17T14:03:14.968Z,99204.50
2023-12-17T14:05:41.659Z,99198.63
2023-12-17T14:08:08.237Z,99201.41
2023-12-17T14:10:34.802Z,99215.25
2023-12-17T14:13:01.419Z,99209.66
2023-12-17T14:15:28.136Z,99205.28
2023-12-17T14:17:54.930Z,99205.34
2023-12-17T14:20:25.508Z,99206.72
2023-12-17T14:22:52.793Z,99207.53
2023-12-17T14:25:19.406Z,99211.22
2023-12-17T14:27:46.217Z,99200.69
2023-12-17T14:30:13.118Z,99200.03
2023-12-17T14:32:39.774Z,99202.69
2023-12-17T14:35:06.422Z,99201.69
2023-12-17T14:37:33.067Z,99207.53
2023-12-17T14:39:59.685Z,99203.78
2023-12-17T14:42:26.374Z,99204.97
2023-12-17T14:44:53.245Z,99195.97
2023-12-17T14:47:19.839Z,99203.13
2023-12-17T14:49:46.509Z,99201.41
2023-12-17T14:52:13.146Z,99202.72
2023-12-17T14:54:39.809Z,99195.03
2023-12-17T14:57:06.651Z,99201.97
2023-12-17T14:59:33.577Z,99193.84
2023-12-17T15:02:00.268Z,99202.53
2023-12-17T15:04:26.896Z,99200.16
2023-12-17T15:06:53.547Z,99206.34
2023-12-17T15:09:20.217Z,99205.66
2023-12-17T15:11:46.857Z,99209.59
2023-12-17T15:14:13.473Z,99211.91
2023-12-17T15:16:40.093Z,99203.69
2023-12-17T15:19:06.738Z,99202.25
2023-12-17T15:21:33.369Z,99203.91
2023-12-17T15:24:00.088Z,99209.75
2023-12-17T15:26:26.831Z,99205.38
2023-12-17T15:28:53.420Z,99211.16
2023-12-17T15:31:20.030Z,99202.75
2023-12-17T15:33:46.851Z,99201.59
2023-12-17T15:36:13.649Z,99207.47
2023-12-17T15:38:41.350Z,99208.06
2023-12-17T15:41:07.977Z,99209.38
2023-12-17T15:43:34.635Z,99210.41
2023-12-17T15:46:01.246Z,99208.25
2023-12-17T15:48:27.934Z,99211.97
2023-12-17T15:50:54.657Z,99212.44
2023-12-17T15:53:21.222Z,99213.34
2023-12-17T15:55:47.827Z,99217.00
2023-12-17T15:58:14.396Z,99216.81
2023-12-17T16:00:41.221Z,99214.25
2023-12-17T16:03:07.978Z,99208.75
2023-12-17T16:05:34.582Z,99211.91
2023-12-17T16:08:01.183Z,99213.38
2023-12-17T16:10:27.784Z,99210.94
2023-12-17T16:12:54.381Z,99205.78
2023-12-17T16:15:21.106Z,99214.16
2023-12-17T16:17:47.803Z,99202.31
2023-12-17T16:20:14.647Z,99214.38
2023-12-17T16:22:41.509Z,99215.22
2023-12-17T16:25:08.254Z,99212.16
2023-12-17T16:27:34.913Z,99222.97
2023-12-17T16:30:01.505Z,99226.22
2023-12-17T16:32:30.397Z,99228.00
2023-12-17T16:34:57.993Z,99232.66
2023-12-17T16:37:24.553Z,99227.19
2023-12-17T16:39:51.141Z,99220.25
2023-12-17T16:42:17.776Z,99221.25
2023-12-17T16:44:45.024Z,99220.56
2023-12-17T16:47:11.717Z,99221.34
2023-12-17T16:49:38.585Z,99226.63
2023-12-17T16:52:05.268Z,99217.50
2023-12-17T16:54:31.862Z,99220.88
2023-12-17T16:56:58.484Z,99223.78
2023-12-17T16:59:25.126Z,99222.72
2023-12-17T17:01:51.736Z,99217.09
2023-12-17T17:04:18.329Z,99215.84
2023-12-17T17:06:45.072Z,99223.53
2023-12-17T17:09:11.701Z,99222.06
2023-12-17T17:11:38.312Z,99229.69
2023-12-17T17:14:04.905Z,99229.44
2023-12-17T17:16:31.511Z,99225.94
2023-12-17T17:18:58.161Z,99233.25
2023-12-17T17:21:25.324Z,99227.66
2023-12-17T17:23:51.943Z,99235.97
2023-12-17T17:26:18.545Z,99247.28
2023-12-17T17:28:45.165Z,99240.19
2023-12-17T17:31:11.762Z,99246.72
2023-12-17T17:33:38.537Z,99244.53
2023-12-17T17:36:05.242Z,99242.13
2023-12-17T17:38:31.835Z,99250.28
2023-12-17T17:40:58.464Z,99240.13
2023-12-17T17:43:25.085Z,99240.72
2023-12-17T17:45:51.699Z,99236.09
2023-12-17T17:48:18.394Z,99235.97
2023-12-17T17:50:45.085Z,99232.94
2023-12-17T17:53:11.674Z,99239.25
2023-12-17T17:55:38.244Z,99239.50
2023-12-17T17:58:04.843Z,99243.13
2023-12-17T18:00:31.460Z,99247.16
2023-12-17T18:02:58.125Z,99237.88
2023-12-17T18:05:24.773Z,99245.50
2023-12-17T18:07:51.375Z,99252.25
2023-12-17T18:10:18.017Z,99247.50
2023-12-17T18:12:44.810Z,99249.56
2023-12-17T18:15:11.628Z,99246.88
2023-12-17T18:17:38.217Z,99251.50
2023-12-17T18:20:04.855Z,99255.41
2023-12-17T18:22:31.424Z,99246.31
2023-12-17T18:24:58.021Z,99251.66
2023-12-17T18:27:24.600Z,99254.41
2023-12-17T18:29:51.349Z,99258.00
2023-12-17T18:32:17.979Z,99266.03
2023-12-17T18:34:44.577Z,99259.81
2023-12-17T18:37:11.203Z,99259.47
2023-12-17T18:39:37.858Z,99259.44
2023-12-17T18:42:04.526Z,99259.22
2023-12-17T18:44:31.167Z,99255.31
2023-12-17T18:46:57.605Z,99254.88
2023-12-17T18:49:24.574Z,99253.25
2023-12-17T18:51:51.243Z,99251.81
2023-12-17T18:54:17.692Z,99255.25
2023-12-17T18:56:44.171Z,99253.09
2023-12-17T18:59:10.665Z,99251.72
2023-12-17T19:01:37.195Z,99249.47
2023-12-17T19:04:03.879Z,99249.28
2023-12-17T19:06:30.453Z,99242.13
2023-12-17T19:08:56.930Z,99247.03
2023-12-17T19:11:23.364Z,99241.56
2023-12-17T19:13:49.843Z,99240.50
2023-12-17T19:16:16.288Z,99241.41
2023-12-17T19:18:42.822Z,99248.28
2023-12-17T19:21:09.310Z,99237.03
2023-12-17T19:23:35.817Z,99249.59
2023-12-17T19:26:02.239Z,99250.88
2023-12-17T19:28:28.677Z,99247.81
2023-12-17T19:30:55.400Z,99241.19
2023-12-17T19:33:21.970Z,99242.25
2023-12-17T19:35:48.449Z,99246.78
2023-12-17T19:38:14.933Z,99245.53
2023-12-17T19:40:41.395Z,99234.69
2023-12-17T19:43:07.864Z,99239.72
2023-12-17T19:45:34.510Z,99238.31
2023-12-17T19:48:01.185Z,99229.03
2023-12-17T19:50:27.842Z,99239.06
2023-12-17T19:52:54.449Z,99234.84
2023-12-17T19:55:21.097Z,99230.88
2023-12-17T19:57:47.691Z,99242.56
2023-12-17T20:00:14.330Z,99236.47
2023-12-17T20:02:41.392Z,99235.78
2023-12-17T20:05:08.411Z,99232.22
2023-12-17T20:07:35.305Z,99238.59
2023-12-17T20:10:02.135Z,99233.44
2023-12-17T20:12:28.847Z,99239.72
2023-12-17T20:14:55.568Z,99243.38
2023-12-17T20:17:22.187Z,99234.00
2023-12-17T20:19:48.878Z,99241.84
2023-12-17T20:22:15.690Z,99245.22
2023-12-17T20:24:42.323Z,99239.22
2023-12-17T20:27:08.975Z,99247.22
2023-12-17T20:29:35.581Z,99246.78
2023-12-17T20:32:02.234Z,99245.06
2023-12-17T20:34:28.870Z,99240.63
2023-12-17T20:36:55.522Z,99244.91
2023-12-17T20:39:22.123Z,99249.16
2023-12-17T20:41:48.726Z,99240.09
2023-12-17T20:44:15.303Z,99234.91
2023-12-17T20:46:42.027Z,99240.59
2023-12-17T20:49:08.678Z,99243.03
2023-12-17T20:51:35.517Z,99243.94
2023-12-17T20:54:02.175Z,99250.13
2023-12-17T20:56:28.792Z,99249.28
2023-12-17T20:58:55.367Z,99243.13
2023-12-17T21:01:21.967Z,99243.94
2023-12-17T21:03:48.751Z,99243.63
2023-12-17T21:06:15.931Z,99242.34
2023-12-17T21:08:42.559Z,99246.22
2023-12-17T21:11:09.134Z,99240.72
2023-12-17T21:13:35.726Z,99241.53
2023-12-17T21:16:02.356Z,99250.16
2023-12-17T21:18:29.229Z,99256.94
2023-12-17T21:20:55.945Z,99246.25
2023-12-17T21:23:22.556Z,99254.03
2023-12-17T21:25:49.147Z,99250.31
2023-12-17T21:28:15.841Z,99241.88
2023-12-17T21:30:42.562Z,99240.59
2023-12-17T21:33:09.491Z,99244.59
2023-12-17T21:35:36.209Z,99239.72
2023-12-17T21:38:02.862Z,99243.34
2023-12-17T21:40:29.443Z,99238.59
2023-12-17T21:42:56.069Z,99239.88
2023-12-17T21:45:22.663Z,99246.09
2023-12-17T21:47:49.346Z,99241.34
2023-12-17T21:50:15.955Z,99246.56
2023-12-17T21:52:42.567Z,99237.53
2023-12-17T21:55:09.161Z,99242.34
2023-12-17T21:57:41.482Z,99252.13
2023-12-17T22:00:10.473Z,99246.63
2023-12-17T22:02:37.425Z,99253.25
2023-12-17T22:05:04.015Z,99248.47
2023-12-17T22:07:30.720Z,99254.88
2023-12-17T22:09:57.484Z,99249.13
2023-12-17T22:12:24.274Z,99249.06
2023-12-17T22:14:50.898Z,99248.97
2023-12-17T22:17:17.506Z,99251.44
2023-12-17T22:19:44.280Z,99252.06
2023-12-17T22:22:10.938Z,99248.66
2023-12-17T22:24:37.601Z,99240.94
2023-12-17T22:27:04.282Z,99243.34
2023-12-17T22:29:30.986Z,99245.28
2023-12-17T22:31:57.766Z,99246.06
2023-12-17T22:34:24.667Z,99240.13
2023-12-17T22:36:51.374Z,99245.91
2023-12-17T22:39:18.014Z,99238.47
2023-12-17T22:41:44.605Z,99245.47
2023-12-17T22:44:11.346Z,99242.84
2023-12-17T22:46:37.932Z,99238.97
2023-12-17T22:49:04.680Z,99240.44
2023-12-17T22:51:31.330Z,99239.63
2023-12-17T22:53:57.942Z,99239.13
2023-12-17T22:56:24.651Z,99242.38
2023-12-17T22:58:51.261Z,99244.00
2023-12-17T23:01:19.016Z,99238.19
2023-12-17T23:03:47.051Z,99234.28
2023-12-17T23:06:13.732Z,99240.28
2023-12-17T23:08:40.394Z,99236.88
2023-12-17T23:11:07.002Z,99240.13
2023-12-17T23:13:33.638Z,99235.28
2023-12-17T23:16:00.225Z,99235.56
2023-12-17T23:18:26.937Z,99230.22
2023-12-17T23:20:53.610Z,99235.41
2023-12-17T23:23:20.204Z,99235.09
2023-12-17T23:25:46.790Z,99232.38
2023-12-17T23:28:13.398Z,99234.22
2023-12-17T23:30:40.117Z,99224.56
2023-12-17T23:33:06.890Z,99230.16
2023-12-17T23:35:33.583Z,99221.44
2023-12-17T23:38:00.210Z,99228.56
2023-12-17T23:40:26.854Z,99228.25
2023-12-17T23:42:53.486Z,99218.00
2023-12-17T23:45:20.098Z,99218.13
2023-12-17T23:47:46.998Z,99216.47
2023-12-17T23:50:13.633Z,99220.97
2023-12-17T23:52:40.213Z,99216.47
2023-12-17T23:55:06.801Z,99217.13
2023-12-17T23:57:33.461Z,99212.97
